createdAt,value
2023-04-30T00:00:14.747Z,102287.03
2023-04-30T00:05:16.573Z,102280.97
2023-04-30T00:10:20.236Z,102285.75
2023-04-30T00:15:21.822Z,102287.19
2023-04-30T00:20:23.420Z,102279.09
2023-04-30T00:25:25.062Z,102287.78
2023-04-30T00:30:26.704Z,102285.75
2023-04-30T00:35:28.365Z,102288.50
2023-04-30T00:40:30.265Z,102291.25
2023-04-30T00:45:31.988Z,102288.66
2023-04-30T00:50:36.517Z,102293.28
2023-04-30T00:55:40.614Z,102277.78
2023-04-30T01:00:47.097Z,102292.72
2023-04-30T01:05:51.428Z,102295.75
2023-04-30T01:11:07.302Z,102296.34
2023-04-30T01:16:21.989Z,102296.06
2023-04-30T01:21:24.489Z,102291.41
2023-04-30T01:27:15.693Z,102301.53
2023-04-30T01:32:17.340Z,102311.41
2023-04-30T01:37:46.248Z,102304.47
2023-04-30T01:43:12.146Z,102304.75
2023-04-30T01:48:44.828Z,102302.69
2023-04-30T01:53:47.196Z,102298.94
2023-04-30T01:58:53.675Z,102291.09
2023-04-30T02:03:55.492Z,102296.03
2023-04-30T02:09:06.216Z,102298.06
2023-04-30T02:14:08.055Z,102304.72
2023-04-30T02:19:11.232Z,102297.03
2023-04-30T02:24:12.940Z,102298.03
2023-04-30T02:29:14.552Z,102288.19
2023-04-30T02:34:16.143Z,102288.16
2023-04-30T02:39:18.148Z,102275.41
2023-04-30T02:44:20.019Z,102266.78
2023-04-30T02:49:21.724Z,102269.63
2023-04-30T02:54:23.409Z,102272.38
2023-04-30T02:59:25.148Z,102276.00
2023-04-30T03:04:26.772Z,102287.31
2023-04-30T03:09:32.391Z,102276.28
2023-04-30T03:14:34.056Z,102276.38
2023-04-30T03:19:35.824Z,102270.16
2023-04-30T03:24:38.334Z,102270.16
2023-04-30T03:29:39.986Z,102276.78
2023-04-30T03:34:41.599Z,102271.31
2023-04-30T03:39:43.251Z,102262.03
2023-04-30T03:44:44.937Z,102270.00
2023-04-30T03:49:55.336Z,102271.16
2023-04-30T03:54:57.923Z,102261.84
2023-04-30T03:59:59.866Z,102261.72
2023-04-30T04:05:02.199Z,102258.13
2023-04-30T04:10:04.052Z,102245.09
2023-04-30T04:15:07.536Z,102249.00
2023-04-30T04:20:13.811Z,102260.09
2023-04-30T04:25:16.038Z,102260.56
2023-04-30T04:30:19.670Z,102271.00
2023-04-30T04:35:22.829Z,102271.69
2023-04-30T04:40:25.026Z,102273.53
2023-04-30T04:45:26.862Z,102275.44
2023-04-30T04:50:28.668Z,102267.69
2023-04-30T04:55:30.307Z,102281.72
2023-04-30T05:00:33.837Z,102288.56
2023-04-30T05:05:35.899Z,102297.25
2023-04-30T05:10:37.834Z,102287.72
2023-04-30T05:15:39.534Z,102281.56
2023-04-30T05:20:43.883Z,102285.56
2023-04-30T05:25:45.657Z,102281.25
2023-04-30T05:30:50.066Z,102290.94
2023-04-30T05:35:51.731Z,102295.41
2023-04-30T05:40:53.426Z,102286.03
2023-04-30T05:45:55.195Z,102301.81
2023-04-30T05:50:56.920Z,102310.59
2023-04-30T05:55:58.777Z,102311.81
2023-04-30T06:01:00.475Z,102323.06
2023-04-30T06:06:02.168Z,102325.38
2023-04-30T06:11:05.188Z,102324.16
2023-04-30T06:16:08.393Z,102333.44
2023-04-30T06:21:10.452Z,102326.91
2023-04-30T06:26:15.047Z,102321.75
2023-04-30T06:31:16.828Z,102320.78
2023-04-30T06:36:21.487Z,102319.03
2023-04-30T06:41:23.157Z,102318.56
2023-04-30T06:46:24.849Z,102321.50
2023-04-30T06:51:26.697Z,102317.00
2023-04-30T06:56:28.294Z,102321.38
2023-04-30T07:01:32.223Z,102322.09
2023-04-30T07:06:34.089Z,102333.41
2023-04-30T07:11:36.104Z,102327.06
2023-04-30T07:16:37.862Z,102326.34
2023-04-30T07:21:39.478Z,102327.50
2023-04-30T07:26:42.439Z,102329.94
2023-04-30T07:31:44.408Z,102335.59
2023-04-30T07:36:49.661Z,102334.84
2023-04-30T07:41:52.369Z,102325.25
2023-04-30T07:46:54.032Z,102327.50
2023-04-30T07:51:56.253Z,102329.94
2023-04-30T07:56:57.903Z,102325.41
2023-04-30T08:02:00.085Z,102328.78
2023-04-30T08:07:02.423Z,102330.47
2023-04-30T08:12:05.177Z,102327.97
2023-04-30T08:17:06.949Z,102326.72
2023-04-30T08:22:08.733Z,102319.78
2023-04-30T08:27:10.306Z,102326.81
2023-04-30T08:32:12.205Z,102338.66
2023-04-30T08:37:17.197Z,102337.03
2023-04-30T08:42:26.165Z,102339.81
2023-04-30T08:47:28.341Z,102328.66
2023-04-30T08:52:34.008Z,102322.03
2023-04-30T08:57:37.079Z,102322.19
2023-04-30T09:02:42.173Z,102329.00
2023-04-30T09:08:01.195Z,102326.81
2023-04-30T09:13:09.475Z,102325.69
2023-04-30T09:18:19.765Z,102317.38
2023-04-30T09:23:21.710Z,102316.84
2023-04-30T09:28:26.591Z,102309.41
2023-04-30T09:33:28.448Z,102309.41
2023-04-30T09:38:32.153Z,102305.56
2023-04-30T09:43:33.952Z,102303.16
2023-04-30T09:48:35.683Z,102292.03
2023-04-30T09:53:42.966Z,102288.31
2023-04-30T09:58:50.220Z,102286.38
2023-04-30T10:03:54.311Z,102284.13
2023-04-30T10:08:57.753Z,102288.84
2023-04-30T10:14:11.948Z,102275.50
2023-04-30T10:19:29.733Z,102281.53
2023-04-30T10:24:31.605Z,102284.00
2023-04-30T10:29:33.803Z,102280.47
2023-04-30T10:34:47.061Z,102277.38
2023-04-30T10:39:52.447Z,102272.78
2023-04-30T10:44:54.314Z,102261.78
2023-04-30T10:50:08.806Z,102265.78
2023-04-30T10:55:10.758Z,102255.66
2023-04-30T11:00:14.393Z,102251.22
2023-04-30T11:05:20.408Z,102242.84
2023-04-30T11:10:23.916Z,102237.28
2023-04-30T11:15:27.206Z,102227.59
2023-04-30T11:20:29.066Z,102222.56
2023-04-30T11:25:39.828Z,102207.66
2023-04-30T11:30:50.721Z,102215.16
2023-04-30T11:35:53.539Z,102207.53
2023-04-30T11:40:56.347Z,102202.53
2023-04-30T11:46:09.339Z,102195.34
2023-04-30T11:51:20.356Z,102188.16
2023-04-30T11:56:25.731Z,102168.06
2023-04-30T12:01:28.622Z,102171.00
2023-04-30T12:06:31.623Z,102167.94
2023-04-30T12:11:34.771Z,102165.38
2023-04-30T12:16:52.396Z,102152.53
2023-04-30T12:21:55.296Z,102153.13
2023-04-30T12:27:00.250Z,102152.53
2023-04-30T12:32:04.031Z,102147.97
2023-04-30T12:37:05.798Z,102143.72
2023-04-30T12:42:10.642Z,102136.50
2023-04-30T12:47:13.945Z,102137.56
2023-04-30T12:52:15.941Z,102123.84
2023-04-30T12:57:20.116Z,102129.28
2023-04-30T13:02:27.215Z,102121.34
2023-04-30T13:07:38.634Z,102121.41
2023-04-30T13:12:40.310Z,102114.50
2023-04-30T13:17:42.074Z,102103.28
2023-04-30T13:22:44.697Z,102098.59
2023-04-30T13:27:46.463Z,102097.41
2023-04-30T13:32:48.565Z,102093.84
2023-04-30T13:37:52.694Z,102081.97
2023-04-30T13:42:54.430Z,102079.78
2023-04-30T13:47:56.483Z,102075.25
2023-04-30T13:52:59.473Z,102071.28
2023-04-30T13:58:01.271Z,102072.53
2023-04-30T14:03:04.028Z,102066.50
2023-04-30T14:08:07.394Z,102059.25
2023-04-30T14:13:09.368Z,102053.63
2023-04-30T14:18:11.274Z,102052.97
2023-04-30T14:23:13.491Z,102047.06
2023-04-30T14:28:15.269Z,102034.91
2023-04-30T14:33:17.330Z,102040.78
2023-04-30T14:38:26.815Z,102038.97
2023-04-30T14:43:28.650Z,102035.19
2023-04-30T14:48:30.544Z,102036.69
2023-04-30T14:53:33.203Z,102027.88
2023-04-30T14:58:35.037Z,102027.41
2023-04-30T15:03:36.818Z,102013.59
2023-04-30T15:08:38.818Z,102001.50
2023-04-30T15:13:40.657Z,101995.09
2023-04-30T15:18:43.161Z,101986.81
2023-04-30T15:23:45.895Z,101982.47
2023-04-30T15:28:49.191Z,101974.56
2023-04-30T15:33:51.427Z,101982.34
2023-04-30T15:38:53.200Z,101976.47
2023-04-30T15:43:54.930Z,101972.13
2023-04-30T15:48:57.126Z,101977.25
2023-04-30T15:53:58.845Z,101974.06
2023-04-30T15:59:00.726Z,101957.78
2023-04-30T16:04:04.443Z,101947.84
2023-04-30T16:09:07.443Z,101950.84
2023-04-30T16:14:09.405Z,101943.31
2023-04-30T16:19:12.467Z,101947.41
2023-04-30T16:24:16.382Z,101941.84
2023-04-30T16:29:19.746Z,101933.28
2023-04-30T16:34:21.649Z,101919.16
2023-04-30T16:39:23.440Z,101916.97
2023-04-30T16:44:25.182Z,101916.13
2023-04-30T16:49:27.066Z,101914.81
2023-04-30T16:54:29.544Z,101912.84
2023-04-30T16:59:31.277Z,101909.63
2023-04-30T17:04:33.062Z,101903.50
2023-04-30T17:09:36.166Z,101898.88
2023-04-30T17:14:37.930Z,101893.28
2023-04-30T17:19:39.685Z,101886.56
2023-04-30T17:24:41.352Z,101890.75
2023-04-30T17:29:43.241Z,101883.09
2023-04-30T17:34:48.194Z,101885.50
2023-04-30T17:39:50.064Z,101888.56
2023-04-30T17:44:51.767Z,101888.69
2023-04-30T17:49:53.864Z,101885.63
2023-04-30T17:54:57.012Z,101884.94
2023-04-30T17:59:59.095Z,101885.81
2023-04-30T18:05:01.100Z,101884.28
2023-04-30T18:10:03.305Z,101872.22
2023-04-30T18:15:08.520Z,101884.50
2023-04-30T18:20:12.370Z,101882.09
2023-04-30T18:25:19.360Z,101874.22
2023-04-30T18:30:21.345Z,101872.81
2023-04-30T18:35:23.476Z,101877.88
2023-04-30T18:40:25.390Z,101874.16
2023-04-30T18:45:27.396Z,101871.75
2023-04-30T18:50:29.071Z,101870.34
2023-04-30T18:55:30.816Z,101874.94
2023-04-30T19:00:32.781Z,101871.50
2023-04-30T19:05:35.813Z,101862.47
2023-04-30T19:10:52.573Z,101870.13
2023-04-30T19:16:04.249Z,101870.88
2023-04-30T19:21:06.021Z,101858.94
2023-04-30T19:26:07.718Z,101863.91
2023-04-30T19:31:09.524Z,101861.56
2023-04-30T19:36:11.673Z,101868.41
2023-04-30T19:41:13.327Z,101859.28
2023-04-30T19:46:19.151Z,101870.84
2023-04-30T19:51:21.036Z,101863.59
2023-04-30T19:56:23.381Z,101862.63
2023-04-30T20:01:28.119Z,101863.09
2023-04-30T20:06:30.473Z,101868.84
2023-04-30T20:11:33.534Z,101860.22
2023-04-30T20:16:35.255Z,101853.16
2023-04-30T20:21:37.010Z,101851.41
2023-04-30T20:26:38.686Z,101851.06
2023-04-30T20:31:44.239Z,101847.22
2023-04-30T20:37:05.555Z,101840.69
2023-04-30T20:42:14.206Z,101847.28
2023-04-30T20:47:33.934Z,101841.44
2023-04-30T20:52:45.084Z,101844.56
2023-04-30T20:57:53.412Z,101834.59
2023-04-30T21:03:02.326Z,101842.03
2023-04-30T21:08:06.204Z,101835.13
2023-04-30T21:13:23.525Z,101835.00
2023-04-30T21:18:36.133Z,101827.38
2023-04-30T21:23:48.187Z,101826.69
2023-04-30T21:28:54.785Z,101810.25
2023-04-30T21:34:11.861Z,101817.03
2023-04-30T21:39:21.102Z,101807.25
2023-04-30T21:44:23.173Z,101810.38
2023-04-30T21:49:31.679Z,101805.22
2023-04-30T21:54:59.405Z,101800.53
2023-04-30T22:00:05.004Z,101786.72
2023-04-30T22:05:21.275Z,101792.63
2023-04-30T22:10:30.900Z,101780.53
2023-04-30T22:15:47.233Z,101773.63
2023-04-30T22:20:53.297Z,101769.31
2023-04-30T22:26:02.298Z,101767.09
2023-04-30T22:31:11.723Z,101766.94
2023-04-30T22:36:14.990Z,101763.31
2023-04-30T22:41:22.367Z,101757.16
2023-04-30T22:46:24.135Z,101762.00
2023-04-30T22:51:27.043Z,101772.56
2023-04-30T22:56:28.700Z,101760.09
2023-04-30T23:01:30.437Z,101756.81
2023-04-30T23:06:32.532Z,101755.13
2023-04-30T23:11:34.232Z,101752.72
2023-04-30T23:16:40.034Z,101744.47
2023-04-30T23:21:41.913Z,101755.88
2023-04-30T23:26:47.376Z,101749.50
2023-04-30T23:31:51.021Z,101745.88
2023-04-30T23:36:53.681Z,101738.63
2023-04-30T23:41:55.324Z,101730.91
2023-04-30T23:46:57.692Z,101743.19
2023-04-30T23:51:59.342Z,101730.53
2023-04-30T23:57:01.057Z,101721.94
